sensor_id;sensor_type;location;lat;lon;timestamp;P1;durP1;ratioP1;P2;durP2;ratioP2
17686;SDS011;8962;52.538;13.266;2023-05-07T00:01:58;22.50;;;14.32;;
17686;SDS011;8962;52.538;13.266;2023-05-07T00:04:25;17.42;;;13.85;;
17686;SDS011;8962;52.538;13.266;2023-05-07T00:06:53;21.50;;;13.80;;
17686;SDS011;8962;52.538;13.266;2023-05-07T00:09:21;17.98;;;13.75;;
17686;SDS011;8962;52.538;13.266;2023-05-07T00:11:48;22.45;;;14.13;;
17686;SDS011;8962;52.538;13.266;2023-05-07T00:14:16;20.90;;;14.65;;
17686;SDS011;8962;52.538;13.266;2023-05-07T00:16:45;21.33;;;14.18;;
17686;SDS011;8962;52.538;13.266;2023-05-07T00:19:12;21.10;;;13.77;;
17686;SDS011;8962;52.538;13.266;2023-05-07T00:21:39;20.98;;;13.18;;
17686;SDS011;8962;52.538;13.266;2023-05-07T00:24:06;21.58;;;14.05;;
17686;SDS011;8962;52.538;13.266;2023-05-07T00:26:33;17.67;;;12.93;;
17686;SDS011;8962;52.538;13.266;2023-05-07T00:29:01;18.60;;;12.68;;
17686;SDS011;8962;52.538;13.266;2023-05-07T00:31:33;20.20;;;13.32;;
17686;SDS011;8962;52.538;13.266;2023-05-07T00:34:00;19.33;;;12.10;;
17686;SDS011;8962;52.538;13.266;2023-05-07T00:36:28;21.48;;;12.60;;
17686;SDS011;8962;52.538;13.266;2023-05-07T00:38:56;20.17;;;12.40;;
17686;SDS011;8962;52.538;13.266;2023-05-07T00:41:27;16.05;;;12.35;;
17686;SDS011;8962;52.538;13.266;2023-05-07T00:44:00;16.77;;;12.18;;
17686;SDS011;8962;52.538;13.266;2023-05-07T00:46:27;16.60;;;11.77;;
17686;SDS011;8962;52.538;13.266;2023-05-07T00:48:58;14.68;;;11.35;;
17686;SDS011;8962;52.538;13.266;2023-05-07T00:51:27;16.30;;;11.68;;
17686;SDS011;8962;52.538;13.266;2023-05-07T00:53:56;16.95;;;11.38;;
17686;SDS011;8962;52.538;13.266;2023-05-07T00:56:23;15.77;;;11.85;;
17686;SDS011;8962;52.538;13.266;2023-05-07T00:58:51;13.85;;;10.77;;
17686;SDS011;8962;52.538;13.266;2023-05-07T01:01:19;15.10;;;11.15;;
17686;SDS011;8962;52.538;13.266;2023-05-07T01:03:46;12.85;;;10.75;;
17686;SDS011;8962;52.538;13.266;2023-05-07T01:06:17;15.82;;;11.10;;
17686;SDS011;8962;52.538;13.266;2023-05-07T01:08:48;14.88;;;11.07;;
17686;SDS011;8962;52.538;13.266;2023-05-07T01:11:18;13.82;;;10.73;;
17686;SDS011;8962;52.538;13.266;2023-05-07T01:13:47;15.45;;;10.95;;
17686;SDS011;8962;52.538;13.266;2023-05-07T01:16:16;15.85;;;11.55;;
17686;SDS011;8962;52.538;13.266;2023-05-07T01:18:43;15.25;;;11.30;;
17686;SDS011;8962;52.538;13.266;2023-05-07T01:21:13;15.77;;;11.63;;
17686;SDS011;8962;52.538;13.266;2023-05-07T01:23:53;14.73;;;11.48;;
17686;SDS011;8962;52.538;13.266;2023-05-07T01:26:22;16.98;;;11.32;;
17686;SDS011;8962;52.538;13.266;2023-05-07T01:28:50;14.32;;;11.43;;
17686;SDS011;8962;52.538;13.266;2023-05-07T01:31:18;14.55;;;10.90;;
17686;SDS011;8962;52.538;13.266;2023-05-07T01:33:46;14.45;;;10.23;;
17686;SDS011;8962;52.538;13.266;2023-05-07T01:36:17;13.45;;;9.88;;
17686;SDS011;8962;52.538;13.266;2023-05-07T01:38:50;12.85;;;10.18;;
17686;SDS011;8962;52.538;13.266;2023-05-07T01:41:17;13.65;;;10.45;;
17686;SDS011;8962;52.538;13.266;2023-05-07T01:43:46;15.73;;;9.85;;
17686;SDS011;8962;52.538;13.266;2023-05-07T01:46:17;14.02;;;10.35;;
17686;SDS011;8962;52.538;13.266;2023-05-07T01:48:46;15.23;;;10.57;;
17686;SDS011;8962;52.538;13.266;2023-05-07T01:51:13;12.55;;;10.27;;
17686;SDS011;8962;52.538;13.266;2023-05-07T01:53:44;12.90;;;10.75;;
17686;SDS011;8962;52.538;13.266;2023-05-07T01:56:18;15.57;;;10.80;;
17686;SDS011;8962;52.538;13.266;2023-05-07T01:58:46;14.05;;;10.55;;
17686;SDS011;8962;52.538;13.266;2023-05-07T02:01:16;15.88;;;10.68;;
17686;SDS011;8962;52.538;13.266;2023-05-07T02:03:43;15.50;;;11.18;;
17686;SDS011;8962;52.538;13.266;2023-05-07T02:06:19;12.48;;;10.15;;
17686;SDS011;8962;52.538;13.266;2023-05-07T02:08:47;16.63;;;10.85;;
17686;SDS011;8962;52.538;13.266;2023-05-07T02:11:15;15.90;;;11.07;;
17686;SDS011;8962;52.538;13.266;2023-05-07T02:13:44;14.48;;;10.57;;
17686;SDS011;8962;52.538;13.266;2023-05-07T02:16:11;13.57;;;10.07;;
17686;SDS011;8962;52.538;13.266;2023-05-07T02:18:39;14.13;;;10.55;;
17686;SDS011;8962;52.538;13.266;2023-05-07T02:21:06;16.35;;;11.13;;
17686;SDS011;8962;52.538;13.266;2023-05-07T02:23:33;13.35;;;10.55;;
17686;SDS011;8962;52.538;13.266;2023-05-07T02:26:01;14.60;;;11.82;;
17686;SDS011;8962;52.538;13.266;2023-05-07T02:28:28;16.25;;;11.80;;
17686;SDS011;8962;52.538;13.266;2023-05-07T02:31:00;14.77;;;11.90;;
17686;SDS011;8962;52.538;13.266;2023-05-07T02:33:30;16.00;;;11.70;;
17686;SDS011;8962;52.538;13.266;2023-05-07T02:36:04;17.38;;;12.65;;
17686;SDS011;8962;52.538;13.266;2023-05-07T02:38:33;16.88;;;12.13;;
17686;SDS011;8962;52.538;13.266;2023-05-07T02:41:01;16.77;;;12.75;;
17686;SDS011;8962;52.538;13.266;2023-05-07T02:43:30;19.65;;;12.75;;
17686;SDS011;8962;52.538;13.266;2023-05-07T02:46:01;17.67;;;12.35;;
17686;SDS011;8962;52.538;13.266;2023-05-07T02:48:29;15.35;;;12.38;;
17686;SDS011;8962;52.538;13.266;2023-05-07T02:50:59;17.88;;;13.07;;
17686;SDS011;8962;52.538;13.266;2023-05-07T02:53:27;16.63;;;11.80;;
17686;SDS011;8962;52.538;13.266;2023-05-07T02:55:56;16.55;;;11.93;;
17686;SDS011;8962;52.538;13.266;2023-05-07T02:58:24;19.92;;;11.57;;
17686;SDS011;8962;52.538;13.266;2023-05-07T03:00:52;15.85;;;11.88;;
17686;SDS011;8962;52.538;13.266;2023-05-07T03:03:30;15.95;;;11.38;;
17686;SDS011;8962;52.538;13.266;2023-05-07T03:05:58;13.88;;;11.18;;
17686;SDS011;8962;52.538;13.266;2023-05-07T03:08:25;15.18;;;11.52;;
17686;SDS011;8962;52.538;13.266;2023-05-07T03:10:52;19.02;;;11.38;;
17686;SDS011;8962;52.538;13.266;2023-05-07T03:13:19;19.77;;;12.32;;
17686;SDS011;8962;52.538;13.266;2023-05-07T03:15:47;14.75;;;11.00;;
17686;SDS011;8962;52.538;13.266;2023-05-07T03:18:14;14.80;;;11.32;;
17686;SDS011;8962;52.538;13.266;2023-05-07T03:20:45;15.68;;;12.05;;
17686;SDS011;8962;52.538;13.266;2023-05-07T03:23:16;16.20;;;10.98;;
17686;SDS011;8962;52.538;13.266;2023-05-07T03:25:43;14.68;;;10.50;;
17686;SDS011;8962;52.538;13.266;2023-05-07T03:28:10;14.48;;;11.15;;
17686;SDS011;8962;52.538;13.266;2023-05-07T03:30:44;14.02;;;10.80;;
17686;SDS011;8962;52.538;13.266;2023-05-07T03:33:11;15.50;;;11.32;;
17686;SDS011;8962;52.538;13.266;2023-05-07T03:35:38;17.50;;;10.65;;
17686;SDS011;8962;52.538;13.266;2023-05-07T03:38:08;15.32;;;10.43;;
17686;SDS011;8962;52.538;13.266;2023-05-07T03:40:37;17.48;;;11.43;;
17686;SDS011;8962;52.538;13.266;2023-05-07T03:43:04;13.93;;;9.82;;
17686;SDS011;8962;52.538;13.266;2023-05-07T03:45:36;13.70;;;10.57;;
17686;SDS011;8962;52.538;13.266;2023-05-07T03:48:10;14.63;;;10.90;;
17686;SDS011;8962;52.538;13.266;2023-05-07T03:50:37;15.45;;;10.70;;
17686;SDS011;8962;52.538;13.266;2023-05-07T03:53:08;14.63;;;10.43;;
17686;SDS011;8962;52.538;13.266;2023-05-07T03:55:38;14.45;;;10.48;;
17686;SDS011;8962;52.538;13.266;2023-05-07T03:58:05;13.88;;;9.98;;
17686;SDS011;8962;52.538;13.266;2023-05-07T04:00:32;13.75;;;10.10;;
17686;SDS011;8962;52.538;13.266;2023-05-07T04:03:12;15.30;;;9.93;;
17686;SDS011;8962;52.538;13.266;2023-05-07T04:05:39;14.07;;;9.45;;
17686;SDS011;8962;52.538;13.266;2023-05-07T04:08:08;15.25;;;10.00;;
17686;SDS011;8962;52.538;13.266;2023-05-07T04:10:40;16.65;;;10.00;;
17686;SDS011;8962;52.538;13.266;2023-05-07T04:13:09;18.38;;;10.20;;
17686;SDS011;8962;52.538;13.266;2023-05-07T04:15:37;15.63;;;9.85;;
17686;SDS011;8962;52.538;13.266;2023-05-07T04:18:11;14.57;;;10.10;;
17686;SDS011;8962;52.538;13.266;2023-05-07T04:20:40;11.43;;;9.18;;
17686;SDS011;8962;52.538;13.266;2023-05-07T04:23:12;12.00;;;8.98;;
17686;SDS011;8962;52.538;13.266;2023-05-07T04:25:40;13.48;;;9.60;;
17686;SDS011;8962;52.538;13.266;2023-05-07T04:28:15;13.30;;;8.82;;
17686;SDS011;8962;52.538;13.266;2023-05-07T04:30:43;11.85;;;9.60;;
17686;SDS011;8962;52.538;13.266;2023-05-07T04:33:10;11.85;;;8.45;;
17686;SDS011;8962;52.538;13.266;2023-05-07T04:35:40;12.75;;;8.95;;
17686;SDS011;8962;52.538;13.266;2023-05-07T04:38:15;12.57;;;8.93;;
17686;SDS011;8962;52.538;13.266;2023-05-07T04:40:45;12.70;;;8.88;;
17686;SDS011;8962;52.538;13.266;2023-05-07T04:43:17;10.75;;;8.93;;
17686;SDS011;8962;52.538;13.266;2023-05-07T04:45:49;12.38;;;9.57;;
17686;SDS011;8962;52.538;13.266;2023-05-07T04:48:17;10.73;;;9.38;;
17686;SDS011;8962;52.538;13.266;2023-05-07T04:50:47;12.80;;;9.15;;
17686;SDS011;8962;52.538;13.266;2023-05-07T04:53:17;14.32;;;9.48;;
17686;SDS011;8962;52.538;13.266;2023-05-07T04:55:45;10.43;;;8.57;;
17686;SDS011;8962;52.538;13.266;2023-05-07T04:58:13;12.50;;;9.27;;
17686;SDS011;8962;52.538;13.266;2023-05-07T05:00:45;10.63;;;8.68;;
17686;SDS011;8962;52.538;13.266;2023-05-07T05:03:12;11.98;;;8.93;;
17686;SDS011;8962;52.538;13.266;2023-05-07T05:05:41;11.70;;;8.63;;
17686;SDS011;8962;52.538;13.266;2023-05-07T05:08:08;13.00;;;8.35;;
17686;SDS011;8962;52.538;13.266;2023-05-07T05:10:41;9.30;;;7.45;;
17686;SDS011;8962;52.538;13.266;2023-05-07T05:13:09;11.88;;;8.00;;
17686;SDS011;8962;52.538;13.266;2023-05-07T05:15:38;10.40;;;7.97;;
17686;SDS011;8962;52.538;13.266;2023-05-07T05:18:05;9.23;;;7.07;;
17686;SDS011;8962;52.538;13.266;2023-05-07T05:20:33;8.63;;;7.38;;
17686;SDS011;8962;52.538;13.266;2023-05-07T05:23:02;9.45;;;7.15;;
17686;SDS011;8962;52.538;13.266;2023-05-07T05:25:30;11.75;;;7.20;;
17686;SDS011;8962;52.538;13.266;2023-05-07T05:28:00;10.05;;;7.38;;
17686;SDS011;8962;52.538;13.266;2023-05-07T05:30:29;9.77;;;7.43;;
17686;SDS011;8962;52.538;13.266;2023-05-07T05:32:56;10.90;;;7.20;;
17686;SDS011;8962;52.538;13.266;2023-05-07T05:35:23;8.80;;;6.78;;
17686;SDS011;8962;52.538;13.266;2023-05-07T05:37:50;9.50;;;6.93;;
17686;SDS011;8962;52.538;13.266;2023-05-07T05:40:21;9.35;;;7.05;;
17686;SDS011;8962;52.538;13.266;2023-05-07T05:42:48;10.27;;;6.93;;
17686;SDS011;8962;52.538;13.266;2023-05-07T05:45:19;12.38;;;7.65;;
17686;SDS011;8962;52.538;13.266;2023-05-07T05:47:46;10.70;;;6.47;;
17686;SDS011;8962;52.538;13.266;2023-05-07T05:50:14;9.23;;;6.93;;
17686;SDS011;8962;52.538;13.266;2023-05-07T05:52:41;11.30;;;7.28;;
17686;SDS011;8962;52.538;13.266;2023-05-07T05:55:10;10.52;;;7.15;;
17686;SDS011;8962;52.538;13.266;2023-05-07T05:57:37;9.80;;;7.35;;
17686;SDS011;8962;52.538;13.266;2023-05-07T06:00:05;10.95;;;7.53;;
17686;SDS011;8962;52.538;13.266;2023-05-07T06:02:45;12.40;;;7.55;;
17686;SDS011;8962;52.538;13.266;2023-05-07T06:05:18;8.90;;;7.30;;
17686;SDS011;8962;52.538;13.266;2023-05-07T06:07:47;10.65;;;7.22;;
17686;SDS011;8962;52.538;13.266;2023-05-07T06:10:14;9.00;;;6.65;;
17686;SDS011;8962;52.538;13.266;2023-05-07T06:12:42;9.07;;;7.22;;
17686;SDS011;8962;52.538;13.266;2023-05-07T06:15:10;10.68;;;6.65;;
17686;SDS011;8962;52.538;13.266;2023-05-07T06:17:38;8.57;;;6.97;;
17686;SDS011;8962;52.538;13.266;2023-05-07T06:20:09;9.90;;;7.20;;
17686;SDS011;8962;52.538;13.266;2023-05-07T06:22:38;8.82;;;6.55;;
17686;SDS011;8962;52.538;13.266;2023-05-07T06:25:06;11.40;;;6.47;;
17686;SDS011;8962;52.538;13.266;2023-05-07T06:27:36;7.43;;;6.28;;
17686;SDS011;8962;52.538;13.266;2023-05-07T06:30:06;8.18;;;6.55;;
17686;SDS011;8962;52.538;13.266;2023-05-07T06:32:36;9.57;;;7.13;;
17686;SDS011;8962;52.538;13.266;2023-05-07T06:35:04;10.68;;;7.60;;
17686;SDS011;8962;52.538;13.266;2023-05-07T06:37:38;10.65;;;7.35;;
17686;SDS011;8962;52.538;13.266;2023-05-07T06:40:11;10.05;;;7.43;;
17686;SDS011;8962;52.538;13.266;2023-05-07T06:42:40;8.35;;;6.80;;
17686;SDS011;8962;52.538;13.266;2023-05-07T06:45:26;11.68;;;7.55;;
17686;SDS011;8962;52.538;13.266;2023-05-07T06:47:55;11.75;;;7.90;;
17686;SDS011;8962;52.538;13.266;2023-05-07T06:50:23;8.65;;;7.05;;
17686;SDS011;8962;52.538;13.266;2023-05-07T06:52:56;10.70;;;7.38;;
17686;SDS011;8962;52.538;13.266;2023-05-07T06:55:23;8.82;;;7.15;;
17686;SDS011;8962;52.538;13.266;2023-05-07T06:57:51;10.02;;;7.35;;
17686;SDS011;8962;52.538;13.266;2023-05-07T07:00:21;9.93;;;7.60;;
17686;SDS011;8962;52.538;13.266;2023-05-07T07:02:52;9.50;;;7.28;;
17686;SDS011;8962;52.538;13.266;2023-05-07T07:05:23;11.70;;;7.70;;
17686;SDS011;8962;52.538;13.266;2023-05-07T07:07:50;12.40;;;7.50;;
17686;SDS011;8962;52.538;13.266;2023-05-07T07:10:22;8.20;;;6.50;;
17686;SDS011;8962;52.538;13.266;2023-05-07T07:12:51;9.38;;;6.57;;
17686;SDS011;8962;52.538;13.266;2023-05-07T07:15:20;7.90;;;6.50;;
17686;SDS011;8962;52.538;13.266;2023-05-07T07:17:48;7.43;;;6.25;;
17686;SDS011;8962;52.538;13.266;2023-05-07T07:20:16;7.72;;;6.25;;
17686;SDS011;8962;52.538;13.266;2023-05-07T07:22:45;8.98;;;6.00;;
17686;SDS011;8962;52.538;13.266;2023-05-07T07:25:14;8.55;;;5.93;;
17686;SDS011;8962;52.538;13.266;2023-05-07T07:27:43;6.10;;;5.13;;
17686;SDS011;8962;52.538;13.266;2023-05-07T07:30:12;8.57;;;5.63;;
17686;SDS011;8962;52.538;13.266;2023-05-07T07:32:42;7.63;;;5.82;;
17686;SDS011;8962;52.538;13.266;2023-05-07T07:35:09;8.50;;;5.43;;
17686;SDS011;8962;52.538;13.266;2023-05-07T07:37:38;9.57;;;5.65;;
17686;SDS011;8962;52.538;13.266;2023-05-07T07:40:05;7.90;;;5.15;;
17686;SDS011;8962;52.538;13.266;2023-05-07T07:42:34;6.15;;;4.88;;
17686;SDS011;8962;52.538;13.266;2023-05-07T07:45:07;5.90;;;4.80;;
17686;SDS011;8962;52.538;13.266;2023-05-07T07:47:39;6.55;;;4.85;;
17686;SDS011;8962;52.538;13.266;2023-05-07T07:50:07;7.03;;;4.68;;
17686;SDS011;8962;52.538;13.266;2023-05-07T07:52:36;5.70;;;4.30;;
17686;SDS011;8962;52.538;13.266;2023-05-07T07:55:05;4.47;;;3.97;;
17686;SDS011;8962;52.538;13.266;2023-05-07T07:57:37;6.15;;;4.18;;
17686;SDS011;8962;52.538;13.266;2023-05-07T08:00:08;6.07;;;4.60;;
17686;SDS011;8962;52.538;13.266;2023-05-07T08:02:41;6.32;;;4.15;;
17686;SDS011;8962;52.538;13.266;2023-05-07T08:05:14;4.70;;;3.83;;
17686;SDS011;8962;52.538;13.266;2023-05-07T08:07:42;5.90;;;3.70;;
17686;SDS011;8962;52.538;13.266;2023-05-07T08:10:12;6.88;;;3.72;;
17686;SDS011;8962;52.538;13.266;2023-05-07T08:12:47;4.60;;;3.63;;
17686;SDS011;8962;52.538;13.266;2023-05-07T08:15:16;5.60;;;4.18;;
17686;SDS011;8962;52.538;13.266;2023-05-07T08:17:45;6.05;;;3.95;;
17686;SDS011;8962;52.538;13.266;2023-05-07T08:20:16;6.43;;;3.40;;
17686;SDS011;8962;52.538;13.266;2023-05-07T08:22:44;6.90;;;4.32;;
17686;SDS011;8962;52.538;13.266;2023-05-07T08:25:11;4.60;;;3.58;;
17686;SDS011;8962;52.538;13.266;2023-05-07T08:27:38;5.93;;;3.55;;
17686;SDS011;8962;52.538;13.266;2023-05-07T08:30:06;6.38;;;4.18;;
17686;SDS011;8962;52.538;13.266;2023-05-07T08:32:36;5.15;;;3.88;;
17686;SDS011;8962;52.538;13.266;2023-05-07T08:35:04;4.72;;;3.97;;
17686;SDS011;8962;52.538;13.266;2023-05-07T08:37:32;7.28;;;4.28;;
17686;SDS011;8962;52.538;13.266;2023-05-07T08:40:01;5.18;;;3.10;;
17686;SDS011;8962;52.538;13.266;2023-05-07T08:42:32;8.65;;;3.40;;
17686;SDS011;8962;52.538;13.266;2023-05-07T08:45:04;6.10;;;4.70;;
17686;SDS011;8962;52.538;13.266;2023-05-07T08:47:43;6.15;;;3.30;;
17686;SDS011;8962;52.538;13.266;2023-05-07T08:50:15;4.75;;;3.25;;
17686;SDS011;8962;52.538;13.266;2023-05-07T08:52:43;4.38;;;3.58;;
17686;SDS011;8962;52.538;13.266;2023-05-07T08:55:11;5.90;;;3.75;;
17686;SDS011;8962;52.538;13.266;2023-05-07T08:57:39;8.93;;;4.63;;
17686;SDS011;8962;52.538;13.266;2023-05-07T09:00:09;4.93;;;3.00;;
17686;SDS011;8962;52.538;13.266;2023-05-07T09:02:38;6.82;;;3.47;;
17686;SDS011;8962;52.538;13.266;2023-05-07T09:05:11;4.47;;;3.38;;
17686;SDS011;8962;52.538;13.266;2023-05-07T09:07:39;7.22;;;3.60;;
17686;SDS011;8962;52.538;13.266;2023-05-07T09:10:07;4.18;;;3.50;;
17686;SDS011;8962;52.538;13.266;2023-05-07T09:12:37;6.78;;;3.65;;
17686;SDS011;8962;52.538;13.266;2023-05-07T09:15:07;6.47;;;4.25;;
17686;SDS011;8962;52.538;13.266;2023-05-07T09:17:35;4.75;;;3.53;;
17686;SDS011;8962;52.538;13.266;2023-05-07T09:20:03;4.50;;;3.28;;
17686;SDS011;8962;52.538;13.266;2023-05-07T09:22:33;3.97;;;3.45;;
17686;SDS011;8962;52.538;13.266;2023-05-07T09:25:06;3.78;;;3.30;;
17686;SDS011;8962;52.538;13.266;2023-05-07T09:27:35;4.80;;;3.25;;
17686;SDS011;8962;52.538;13.266;2023-05-07T09:30:04;4.15;;;3.40;;
17686;SDS011;8962;52.538;13.266;2023-05-07T09:32:34;4.63;;;3.15;;
17686;SDS011;8962;52.538;13.266;2023-05-07T09:35:04;4.72;;;3.90;;
17686;SDS011;8962;52.538;13.266;2023-05-07T09:37:35;8.38;;;4.20;;
17686;SDS011;8962;52.538;13.266;2023-05-07T09:40:02;5.75;;;3.75;;
17686;SDS011;8962;52.538;13.266;2023-05-07T09:42:34;7.50;;;4.13;;
17686;SDS011;8962;52.538;13.266;2023-05-07T09:45:05;5.15;;;3.33;;
17686;SDS011;8962;52.538;13.266;2023-05-07T09:47:36;6.15;;;3.60;;
17686;SDS011;8962;52.538;13.266;2023-05-07T09:50:11;6.80;;;3.60;;
17686;SDS011;8962;52.538;13.266;2023-05-07T09:52:43;4.07;;;3.05;;
17686;SDS011;8962;52.538;13.266;2023-05-07T09:55:12;8.15;;;3.85;;
17686;SDS011;8962;52.538;13.266;2023-05-07T09:57:41;5.00;;;3.65;;
17686;SDS011;8962;52.538;13.266;2023-05-07T10:00:10;5.07;;;3.55;;
17686;SDS011;8962;52.538;13.266;2023-05-07T10:02:46;4.78;;;3.35;;
17686;SDS011;8962;52.538;13.266;2023-05-07T10:05:22;6.32;;;3.90;;
17686;SDS011;8962;52.538;13.266;2023-05-07T10:07:54;5.78;;;3.65;;
17686;SDS011;8962;52.538;13.266;2023-05-07T10:10:22;6.25;;;3.63;;
17686;SDS011;8962;52.538;13.266;2023-05-07T10:12:51;5.15;;;3.65;;
17686;SDS011;8962;52.538;13.266;2023-05-07T10:15:27;5.35;;;3.58;;
17686;SDS011;8962;52.538;13.266;2023-05-07T10:17:59;5.07;;;3.20;;
17686;SDS011;8962;52.538;13.266;2023-05-07T10:20:27;5.85;;;3.40;;
17686;SDS011;8962;52.538;13.266;2023-05-07T10:22:56;3.38;;;2.80;;
17686;SDS011;8962;52.538;13.266;2023-05-07T10:25:33;4.95;;;3.10;;
17686;SDS011;8962;52.538;13.266;2023-05-07T10:28:08;4.20;;;3.03;;
17686;SDS011;8962;52.538;13.266;2023-05-07T10:30:47;3.58;;;2.85;;
17686;SDS011;8962;52.538;13.266;2023-05-07T10:33:28;5.07;;;2.90;;
17686;SDS011;8962;52.538;13.266;2023-05-07T10:35:59;6.20;;;2.50;;
17686;SDS011;8962;52.538;13.266;2023-05-07T10:38:32;3.50;;;2.55;;
17686;SDS011;8962;52.538;13.266;2023-05-07T10:41:01;4.20;;;2.40;;
17686;SDS011;8962;52.538;13.266;2023-05-07T10:43:39;4.55;;;2.70;;
17686;SDS011;8962;52.538;13.266;2023-05-07T10:46:09;3.28;;;2.60;;
17686;SDS011;8962;52.538;13.266;2023-05-07T10:52:11;3.78;;;2.20;;
17686;SDS011;8962;52.538;13.266;2023-05-07T10:54:47;6.35;;;3.10;;
17686;SDS011;8962;52.538;13.266;2023-05-07T10:58:25;2.90;;;2.38;;
17686;SDS011;8962;52.538;13.266;2023-05-07T11:01:11;2.38;;;2.00;;
17686;SDS011;8962;52.538;13.266;2023-05-07T11:06:38;3.22;;;2.47;;
17686;SDS011;8962;52.538;13.266;2023-05-07T11:09:09;3.05;;;2.20;;
17686;SDS011;8962;52.538;13.266;2023-05-07T11:11:50;2.88;;;2.20;;
17686;SDS011;8962;52.538;13.266;2023-05-07T11:14:43;6.40;;;2.60;;
17686;SDS011;8962;52.538;13.266;2023-05-07T11:17:22;5.50;;;2.50;;
17686;SDS011;8962;52.538;13.266;2023-05-07T11:20:03;6.75;;;2.40;;
17686;SDS011;8962;52.538;13.266;2023-05-07T11:22:38;4.72;;;2.60;;
17686;SDS011;8962;52.538;13.266;2023-05-07T11:25:21;5.60;;;2.38;;
17686;SDS011;8962;52.538;13.266;2023-05-07T11:27:57;4.80;;;2.33;;
17686;SDS011;8962;52.538;13.266;2023-05-07T11:30:31;5.20;;;2.40;;
17686;SDS011;8962;52.538;13.266;2023-05-07T11:32:59;3.58;;;2.20;;
17686;SDS011;8962;52.538;13.266;2023-05-07T11:35:26;6.60;;;3.15;;
17686;SDS011;8962;52.538;13.266;2023-05-07T11:37:57;3.05;;;2.08;;
17686;SDS011;8962;52.538;13.266;2023-05-07T11:40:32;4.47;;;2.25;;
17686;SDS011;8962;52.538;13.266;2023-05-07T11:43:01;4.50;;;2.28;;
17686;SDS011;8962;52.538;13.266;2023-05-07T11:45:36;3.83;;;2.15;;
17686;SDS011;8962;52.538;13.266;2023-05-07T11:48:05;4.63;;;2.25;;
17686;SDS011;8962;52.538;13.266;2023-05-07T11:50:32;5.00;;;2.10;;
17686;SDS011;8962;52.538;13.266;2023-05-07T11:53:07;3.88;;;2.30;;
17686;SDS011;8962;52.538;13.266;2023-05-07T11:55:35;5.43;;;2.58;;
17686;SDS011;8962;52.538;13.266;2023-05-07T11:58:04;5.43;;;2.70;;
17686;SDS011;8962;52.538;13.266;2023-05-07T12:00:33;3.58;;;2.42;;
17686;SDS011;8962;52.538;13.266;2023-05-07T12:03:02;3.03;;;2.33;;
17686;SDS011;8962;52.538;13.266;2023-05-07T12:05:30;3.63;;;2.33;;
17686;SDS011;8962;52.538;13.266;2023-05-07T12:07:58;3.63;;;2.30;;
17686;SDS011;8962;52.538;13.266;2023-05-07T12:10:26;3.22;;;2.40;;
17686;SDS011;8962;52.538;13.266;2023-05-07T12:12:54;3.35;;;1.77;;
17686;SDS011;8962;52.538;13.266;2023-05-07T12:15:26;3.47;;;2.50;;
17686;SDS011;8962;52.538;13.266;2023-05-07T12:17:54;8.77;;;4.82;;
17686;SDS011;8962;52.538;13.266;2023-05-07T12:20:21;7.07;;;4.28;;
17686;SDS011;8962;52.538;13.266;2023-05-07T12:22:49;4.60;;;2.85;;
17686;SDS011;8962;52.538;13.266;2023-05-07T12:25:18;4.95;;;2.60;;
17686;SDS011;8962;52.538;13.266;2023-05-07T12:27:50;5.07;;;3.72;;
17686;SDS011;8962;52.538;13.266;2023-05-07T12:30:18;5.13;;;3.83;;
17686;SDS011;8962;52.538;13.266;2023-05-07T12:32:47;6.40;;;3.80;;
17686;SDS011;8962;52.538;13.266;2023-05-07T12:35:25;2.95;;;2.30;;
17686;SDS011;8962;52.538;13.266;2023-05-07T12:37:56;4.35;;;2.72;;
17686;SDS011;8962;52.538;13.266;2023-05-07T12:40:29;2.67;;;2.30;;
17686;SDS011;8962;52.538;13.266;2023-05-07T12:43:02;2.65;;;2.00;;
17686;SDS011;8962;52.538;13.266;2023-05-07T12:45:30;4.13;;;2.78;;
17686;SDS011;8962;52.538;13.266;2023-05-07T12:48:02;2.42;;;2.10;;
17686;SDS011;8962;52.538;13.266;2023-05-07T12:50:33;2.78;;;1.88;;
17686;SDS011;8962;52.538;13.266;2023-05-07T12:53:00;3.10;;;1.95;;
17686;SDS011;8962;52.538;13.266;2023-05-07T12:55:31;4.03;;;2.65;;
17686;SDS011;8962;52.538;13.266;2023-05-07T12:58:00;6.90;;;3.17;;
17686;SDS011;8962;52.538;13.266;2023-05-07T13:00:34;4.18;;;3.03;;
17686;SDS011;8962;52.538;13.266;2023-05-07T13:03:04;4.60;;;2.20;;
17686;SDS011;8962;52.538;13.266;2023-05-07T13:05:31;2.72;;;1.92;;
17686;SDS011;8962;52.538;13.266;2023-05-07T13:07:58;5.82;;;2.20;;
17686;SDS011;8962;52.538;13.266;2023-05-07T13:10:26;3.72;;;2.47;;
17686;SDS011;8962;52.538;13.266;2023-05-07T13:12:54;4.35;;;2.50;;
17686;SDS011;8962;52.538;13.266;2023-05-07T13:15:21;2.78;;;2.15;;
17686;SDS011;8962;52.538;13.266;2023-05-07T13:17:48;5.28;;;3.65;;
17686;SDS011;8962;52.538;13.266;2023-05-07T13:20:17;4.65;;;3.58;;
17686;SDS011;8962;52.538;13.266;2023-05-07T13:22:44;6.35;;;2.88;;
17686;SDS011;8962;52.538;13.266;2023-05-07T13:25:12;3.00;;;2.30;;
17686;SDS011;8962;52.538;13.266;2023-05-07T13:27:39;8.15;;;2.97;;
17686;SDS011;8962;52.538;13.266;2023-05-07T13:30:06;4.20;;;2.60;;
17686;SDS011;8962;52.538;13.266;2023-05-07T13:32:34;4.32;;;2.60;;
17686;SDS011;8962;52.538;13.266;2023-05-07T13:35:01;5.13;;;3.60;;
17686;SDS011;8962;52.538;13.266;2023-05-07T13:37:29;6.25;;;3.17;;
17686;SDS011;8962;52.538;13.266;2023-05-07T13:39:57;3.88;;;2.90;;
17686;SDS011;8962;52.538;13.266;2023-05-07T13:42:25;7.13;;;3.13;;
17686;SDS011;8962;52.538;13.266;2023-05-07T13:44:53;3.08;;;2.10;;
17686;SDS011;8962;52.538;13.266;2023-05-07T13:47:20;4.95;;;2.28;;
17686;SDS011;8962;52.538;13.266;2023-05-07T13:49:47;3.17;;;2.28;;
17686;SDS011;8962;52.538;13.266;2023-05-07T13:52:15;5.78;;;3.13;;
17686;SDS011;8962;52.538;13.266;2023-05-07T13:54:43;5.18;;;2.30;;
17686;SDS011;8962;52.538;13.266;2023-05-07T13:57:11;3.03;;;2.13;;
17686;SDS011;8962;52.538;13.266;2023-05-07T13:59:38;7.25;;;4.88;;
17686;SDS011;8962;52.538;13.266;2023-05-07T14:02:07;4.57;;;2.75;;
17686;SDS011;8962;52.538;13.266;2023-05-07T14:04:34;3.67;;;2.20;;
17686;SDS011;8962;52.538;13.266;2023-05-07T14:07:03;4.13;;;2.28;;
17686;SDS011;8962;52.538;13.266;2023-05-07T14:09:30;3.22;;;2.38;;
17686;SDS011;8962;52.538;13.266;2023-05-07T14:11:58;3.22;;;2.20;;
17686;SDS011;8962;52.538;13.266;2023-05-07T14:14:26;3.08;;;1.85;;
17686;SDS011;8962;52.538;13.266;2023-05-07T14:16:54;3.95;;;3.15;;
17686;SDS011;8962;52.538;13.266;2023-05-07T14:19:21;2.90;;;2.20;;
17686;SDS011;8962;52.538;13.266;2023-05-07T14:21:48;2.60;;;1.83;;
17686;SDS011;8962;52.538;13.266;2023-05-07T14:24:17;3.15;;;2.10;;
17686;SDS011;8962;52.538;13.266;2023-05-07T14:26:45;3.72;;;2.30;;
17686;SDS011;8962;52.538;13.266;2023-05-07T14:29:13;4.70;;;2.50;;
17686;SDS011;8962;52.538;13.266;2023-05-07T14:31:44;2.63;;;1.95;;
17686;SDS011;8962;52.538;13.266;2023-05-07T14:34:11;3.33;;;2.08;;
17686;SDS011;8962;52.538;13.266;2023-05-07T14:36:38;4.47;;;3.22;;
17686;SDS011;8962;52.538;13.266;2023-05-07T14:39:05;6.68;;;4.93;;
17686;SDS011;8962;52.538;13.266;2023-05-07T14:41:33;5.10;;;3.50;;
17686;SDS011;8962;52.538;13.266;2023-05-07T14:44:01;7.35;;;2.63;;
17686;SDS011;8962;52.538;13.266;2023-05-07T14:46:30;4.07;;;2.50;;
17686;SDS011;8962;52.538;13.266;2023-05-07T14:48:58;7.22;;;2.90;;
17686;SDS011;8962;52.538;13.266;2023-05-07T14:51:26;3.13;;;2.20;;
17686;SDS011;8962;52.538;13.266;2023-05-07T14:53:54;4.75;;;2.78;;
17686;SDS011;8962;52.538;13.266;2023-05-07T14:56:21;4.97;;;2.47;;
17686;SDS011;8962;52.538;13.266;2023-05-07T14:58:48;3.53;;;2.30;;
17686;SDS011;8962;52.538;13.266;2023-05-07T15:01:15;4.93;;;2.35;;